Time;durP1;ratioP1;P1;durP2;ratioP2;P2;SDS_P1;SDS_P2;PMS_P1;PMS_P2;Temp;Humidity;BMP_temperature;BMP_pressure;BME280_temperature;BME280_humidity;BME280_pressure;Samples;Min_cycle;Max_cycle;Signal;HPM_P1;HPM_P2
2021/10/13 00:02:01;;;;;;;27.87;15.55;;;;;;;9.71;91.12;99494.09;1711530;84;21390;-76
2021/10/13 00:05:06;;;;;;;29.77;15.55;;;;;;;9.66;91.24;99488.89;1711481;82;21333;-76
2021/10/13 00:08:14;;;;;;;34.67;14.43;;;;;;;9.63;91.35;99490.09;1712608;84;21299;-76
2021/10/13 00:11:19;;;;;;;25.12;13.85;;;;;;;9.60;91.64;99499.21;1712313;84;21306;-76
2021/10/13 00:14:26;;;;;;;25.60;14.50;;;;;;;9.54;91.96;99497.22;1711128;84;21315;-76
2021/10/13 00:17:31;;;;;;;30.55;16.48;;;;;;;9.48;92.26;99494.20;1711845;84;22668;-76
2021/10/13 00:20:36;;;;;;;27.25;13.00;;;;;;;9.46;92.33;99507.73;1712363;84;21386;-76
2021/10/13 00:23:42;;;;;;;26.00;14.30;;;;;;;9.44;92.34;99505.17;1712654;84;21192;-75
2021/10/13 00:26:49;;;;;;;29.15;14.70;;;;;;;9.43;92.36;99502.64;1712585;84;21326;-76
2021/10/13 00:29:56;;;;;;;26.87;14.80;;;;;;;9.40;92.32;99500.28;1712770;84;21644;-76
2021/10/13 00:33:01;;;;;;;22.15;13.18;;;;;;;9.37;92.34;99496.58;1712388;84;21335;-76
2021/10/13 00:36:07;;;;;;;26.55;13.13;;;;;;;9.30;92.54;99496.47;1712614;84;21727;-76
2021/10/13 00:39:12;;;;;;;34.73;15.15;;;;;;;9.24;92.78;99489.05;1711280;84;21299;-76
2021/10/13 00:42:17;;;;;;;22.07;13.03;;;;;;;9.19;93.31;99495.58;1711253;84;21945;-75
2021/10/13 00:45:24;;;;;;;25.92;14.03;;;;;;;9.16;93.60;99480.41;1712709;84;21235;-75
2021/10/13 00:48:30;;;;;;;24.15;13.20;;;;;;;9.16;93.76;99485.03;1711824;84;21835;-75
2021/10/13 00:51:37;;;;;;;23.47;12.80;;;;;;;9.16;93.77;99492.70;1711979;84;21196;-75
2021/10/13 00:54:43;;;;;;;24.07;14.03;;;;;;;9.14;93.66;99494.78;1712758;84;22106;-75
2021/10/13 00:57:49;;;;;;;25.35;12.78;;;;;;;9.14;93.69;99495.30;1712656;84;21869;-75
2021/10/13 01:00:57;;;;;;;21.70;12.33;;;;;;;9.13;93.73;99490.88;1711352;84;21247;-75
2021/10/13 01:04:23;;;;;;;28.45;12.98;;;;;;;9.10;93.61;99489.88;1712145;84;21366;-75
2021/10/13 01:08:04;;;;;;;32.48;15.58;;;;;;;9.04;93.68;99488.75;1701589;84;21311;-75
2021/10/13 01:11:43;;;;;;;26.30;13.05;;;;;;;8.99;94.00;99475.31;1714453;83;21302;-74
2021/10/13 01:15:04;;;;;;;25.82;13.93;;;;;;;8.95;94.24;99479.80;1750723;82;21354;-75
2021/10/13 01:18:28;;;;;;;30.10;14.58;;;;;;;8.88;94.38;99469.81;1750637;82;21338;-75
2021/10/13 01:22:06;;;;;;;28.10;13.72;;;;;;;8.84;94.46;99472.57;1750295;82;21348;-75
2021/10/13 01:25:46;;;;;;;31.00;14.45;;;;;;;8.79;94.51;99484.03;1750700;82;21299;-75
2021/10/13 01:28:53;;;;;;;20.82;12.78;;;;;;;8.77;94.51;99488.00;1750674;82;21824;-75
2021/10/13 01:32:03;;;;;;;33.33;13.78;;;;;;;8.69;94.48;99475.27;1750135;82;21314;-75
2021/10/13 01:35:09;;;;;;;26.40;14.03;;;;;;;8.61;94.83;99466.67;1749391;82;21862;-75
2021/10/13 01:38:15;;;;;;;24.98;13.20;;;;;;;8.60;95.28;99473.66;1750760;82;21304;-75
2021/10/13 01:41:21;;;;;;;26.10;12.75;;;;;;;8.60;95.49;99462.75;1750687;82;21264;-75
2021/10/13 01:44:27;;;;;;;25.65;14.00;;;;;;;8.57;95.50;99450.34;1750842;82;21327;-75
2021/10/13 01:47:33;;;;;;;20.97;13.60;;;;;;;8.53;95.46;99440.00;1750807;82;21233;-75
2021/10/13 01:50:39;;;;;;;25.05;13.53;;;;;;;8.45;95.48;99432.73;1750737;82;21176;-75
2021/10/13 01:53:44;;;;;;;22.95;12.15;;;;;;;8.39;95.51;99449.31;1750616;82;21902;-75
2021/10/13 01:56:51;;;;;;;20.37;13.43;;;;;;;8.33;95.69;99452.73;1693468;83;21945;-75
2021/10/13 01:59:57;;;;;;;26.23;12.73;;;;;;;8.31;95.82;99456.66;1750866;81;21772;-75
2021/10/13 02:03:03;;;;;;;32.90;13.95;;;;;;;8.28;95.96;99453.80;1713804;83;21755;-75
2021/10/13 02:06:09;;;;;;;22.40;13.13;;;;;;;8.28;96.00;99452.45;1751056;82;21366;-75
2021/10/13 02:09:15;;;;;;;23.77;12.13;;;;;;;8.24;95.99;99455.20;1753719;82;21327;-75
2021/10/13 02:12:20;;;;;;;23.67;13.72;;;;;;;8.24;96.04;99452.47;1753602;82;21760;-74
2021/10/13 02:15:26;;;;;;;24.02;11.53;;;;;;;8.23;96.08;99458.08;1718124;83;21243;-74
2021/10/13 02:18:35;;;;;;;29.25;14.47;;;;;;;8.20;96.17;99456.06;1718195;83;21302;-74
2021/10/13 02:21:46;;;;;;;19.77;11.33;;;;;;;8.19;96.41;99457.10;1717112;83;21195;-74
2021/10/13 02:24:57;;;;;;;33.35;12.78;;;;;;;8.17;96.52;99456.42;1716600;83;21187;-75
2021/10/13 02:28:07;;;;;;;24.50;13.03;;;;;;;8.14;96.56;99451.87;1718100;83;21172;-75
2021/10/13 02:31:12;;;;;;;22.22;12.23;;;;;;;8.10;96.70;99445.09;1718270;83;21314;-75
2021/10/13 02:34:19;;;;;;;26.35;13.70;;;;;;;8.09;97.26;99453.78;1716856;83;21231;-75
2021/10/13 02:37:25;;;;;;;17.52;11.88;;;;;;;8.08;97.66;99445.77;1718298;83;21191;-75
2021/10/13 02:40:32;;;;;;;26.17;13.18;;;;;;;8.07;97.93;99447.64;1716705;83;21798;-75
2021/10/13 02:43:38;;;;;;;25.20;11.80;;;;;;;8.06;98.06;99441.88;1717111;83;21155;-75
2021/10/13 02:46:57;;;;;;;18.30;10.15;;;;;;;8.07;98.23;99437.27;1718031;83;21349;-75
2021/10/13 02:50:19;;;;;;;24.55;12.33;;;;;;;8.07;98.39;99429.09;1699092;84;21333;-75
2021/10/13 02:53:56;;;;;;;23.92;12.95;;;;;;;8.07;98.59;99436.75;1717409;83;21168;-75
2021/10/13 02:57:01;;;;;;;22.32;12.00;;;;;;;8.08;98.84;99438.95;1700077;84;21613;-76
2021/10/13 03:00:08;;;;;;;31.97;13.48;;;;;;;8.09;99.23;99443.37;1718118;83;21257;-75
2021/10/13 03:03:43;;;;;;;27.90;15.10;;;;;;;8.09;99.43;99429.75;1717658;83;21267;-75
2021/10/13 03:07:03;;;;;;;30.48;15.70;;;;;;;8.07;99.48;99430.46;1703609;82;21188;-75
2021/10/13 03:10:10;;;;;;;34.63;14.68;;;;;;;8.06;99.50;99430.13;1699354;83;21848;-75
2021/10/13 03:13:15;;;;;;;25.57;14.35;;;;;;;8.04;99.56;99433.53;1737081;82;21784;-75
2021/10/13 03:16:20;;;;;;;26.52;15.08;;;;;;;8.03;99.63;99431.33;1741884;82;21320;-75
2021/10/13 03:19:29;;;;;;;24.60;14.18;;;;;;;8.05;99.78;99418.39;1743073;82;21736;-75
2021/10/13 03:22:34;;;;;;;23.10;14.55;;;;;;;8.06;99.91;99418.72;1717757;82;21327;-75
2021/10/13 03:25:39;;;;;;;25.17;14.25;;;;;;;8.05;99.92;99408.02;1712530;84;21776;-75
2021/10/13 03:28:46;;;;;;;27.58;15.60;;;;;;;8.06;99.86;99394.73;1728518;82;21292;-75
2021/10/13 03:31:52;;;;;;;25.85;15.90;;;;;;;8.04;99.76;99399.48;1714816;82;21296;-75
2021/10/13 03:34:57;;;;;;;26.20;14.55;;;;;;;8.03;99.80;99412.78;1740482;82;21187;-75
2021/10/13 03:38:03;;;;;;;28.67;16.62;;;;;;;8.02;99.94;99411.94;1741797;82;21192;-75
2021/10/13 03:41:11;;;;;;;29.35;16.45;;;;;;;8.03;100.00;99404.61;1713505;84;21307;-75
2021/10/13 03:44:16;;;;;;;36.58;16.52;;;;;;;8.01;100.00;99395.80;1717190;83;21370;-75
2021/10/13 03:47:22;;;;;;;34.00;17.42;;;;;;;7.99;100.00;99397.83;1710802;83;21721;-75
2021/10/13 03:50:29;;;;;;;28.00;15.25;;;;;;;7.98;100.00;99402.95;1728085;82;21248;-75
2021/10/13 03:53:35;;;;;;;41.13;17.35;;;;;;;7.99;100.00;99410.92;1747813;82;21910;-75
2021/10/13 03:56:40;;;;;;;31.33;18.55;;;;;;;8.02;100.00;99408.38;1729216;82;21165;-75
2021/10/13 03:59:47;;;;;;;29.63;16.05;;;;;;;8.04;100.00;99408.50;1735383;82;21193;-74
2021/10/13 04:02:56;;;;;;;31.33;18.87;;;;;;;8.09;100.00;99399.79;1732439;82;21172;-74
2021/10/13 04:06:02;;;;;;;37.48;17.17;;;;;;;8.13;100.00;99392.95;1700002;84;21347;-74
2021/10/13 04:09:08;;;;;;;37.00;19.27;;;;;;;8.16;100.00;99389.88;1692322;84;21356;-75
2021/10/13 04:12:14;;;;;;;34.67;20.37;;;;;;;8.15;100.00;99379.49;1749681;81;21153;-76
2021/10/13 04:15:21;;;;;;;38.55;22.35;;;;;;;8.16;100.00;99376.25;1770117;81;21297;-76
2021/10/13 04:18:26;;;;;;;65.28;34.83;;;;;;;8.18;100.00;99376.91;1769634;80;21193;-76
2021/10/13 04:21:32;;;;;;;63.83;35.55;;;;;;;8.19;100.00;99372.66;1768437;79;21217;-76
2021/10/13 04:24:38;;;;;;;49.30;29.15;;;;;;;8.25;100.00;99369.70;1769597;81;21319;-76
2021/10/13 04:27:44;;;;;;;54.03;34.40;;;;;;;8.32;100.00;99369.80;1770375;81;21297;-76
2021/10/13 04:30:50;;;;;;;56.50;30.97;;;;;;;8.37;100.00;99364.67;1770554;81;21312;-76
2021/10/13 04:33:57;;;;;;;58.92;30.80;;;;;;;8.41;100.00;99372.30;1735580;81;21188;-76
2021/10/13 04:37:03;;;;;;;54.13;29.30;;;;;;;8.44;100.00;99364.28;1753169;81;21312;-76
2021/10/13 04:40:10;;;;;;;67.95;33.67;;;;;;;8.48;100.00;99371.05;1769323;81;21301;-76
2021/10/13 04:43:15;;;;;;;63.13;29.90;;;;;;;8.54;100.00;99377.63;1744587;81;21335;-76
2021/10/13 04:46:21;;;;;;;46.73;26.93;;;;;;;8.58;100.00;99376.23;1728852;81;21536;-76
2021/10/13 04:49:27;;;;;;;59.80;30.00;;;;;;;8.64;100.00;99368.14;1757291;81;21271;-75
2021/10/13 04:52:34;;;;;;;58.80;32.70;;;;;;;8.67;100.00;99356.88;1758642;81;21314;-75
2021/10/13 04:55:39;;;;;;;61.98;33.25;;;;;;;8.72;100.00;99362.28;1762074;81;21288;-75
2021/10/13 04:58:46;;;;;;;53.42;30.23;;;;;;;8.76;100.00;99360.36;1754619;81;21668;-76
2021/10/13 05:01:51;;;;;;;55.92;30.72;;;;;;;8.83;100.00;99361.28;1755976;79;21244;-76
2021/10/13 05:04:57;;;;;;;64.07;32.10;;;;;;;8.89;100.00;99364.65;1760317;81;21181;-76
2021/10/13 05:08:04;;;;;;;68.10;35.85;;;;;;;8.99;100.00;99360.76;1755877;79;21581;-76
2021/10/13 05:11:11;;;;;;;66.40;33.85;;;;;;;9.09;100.00;99351.80;1760361;81;21149;-77
2021/10/13 05:14:16;;;;;;;66.90;34.98;;;;;;;9.20;100.00;99349.93;1702661;82;21179;-78
2021/10/13 05:17:21;;;;;;;76.60;36.98;;;;;;;9.29;100.00;99351.52;1760150;81;21240;-76
2021/10/13 05:20:27;;;;;;;70.45;37.73;;;;;;;9.40;99.80;99357.83;1745611;81;21649;-76
2021/10/13 05:23:33;;;;;;;70.08;36.65;;;;;;;9.52;99.54;99349.16;1758460;79;21311;-76
2021/10/13 05:26:42;;;;;;;67.47;34.60;;;;;;;9.63;99.21;99345.91;1756088;79;21244;-79
2021/10/13 05:29:51;;;;;;;62.83;35.13;;;;;;;9.76;98.76;99352.04;1755737;81;21170;-74
2021/10/13 05:32:58;;;;;;;64.85;37.50;;;;;;;9.84;98.28;99351.92;1755820;81;21181;-76
2021/10/13 05:36:03;;;;;;;59.48;33.45;;;;;;;9.96;97.98;99351.18;1753889;79;21310;-76
2021/10/13 05:39:10;;;;;;;53.52;34.18;;;;;;;10.08;97.48;99346.58;1753450;79;21161;-75
2021/10/13 05:42:16;;;;;;;53.68;31.42;;;;;;;10.20;97.06;99350.45;1754937;81;21287;-75
2021/10/13 05:45:22;;;;;;;65.87;33.63;;;;;;;10.33;96.74;99346.50;1755796;79;21708;-77
2021/10/13 05:48:27;;;;;;;56.15;34.73;;;;;;;10.43;96.09;99349.72;1756700;80;21193;-76
2021/10/13 05:51:33;;;;;;;65.65;38.13;;;;;;;10.52;95.39;99350.42;1757808;79;21302;-76
2021/10/13 05:54:38;;;;;;;59.93;34.08;;;;;;;10.60;95.01;99359.85;1755465;79;21326;-77
2021/10/13 05:57:44;;;;;;;61.28;35.60;;;;;;;10.69;94.50;99361.39;1756225;80;21167;-76
2021/10/13 06:01:00;;;;;;;57.38;31.17;;;;;;;10.83;94.45;99371.89;1716301;80;21176;-75
2021/10/13 06:04:04;;;;;;;65.08;31.80;;;;;;;11.03;94.02;99371.16;1761352;79;21280;-75
2021/10/13 06:07:14;;;;;;;61.25;33.18;;;;;;;11.18;93.17;99359.02;1756781;79;21246;-76
2021/10/13 06:10:20;;;;;;;63.30;28.83;;;;;;;11.34;92.03;99352.87;1755879;79;21223;-75
2021/10/13 06:13:25;;;;;;;50.73;28.52;;;;;;;11.47;91.39;99345.55;1774029;79;21637;-74
2021/10/13 06:16:32;;;;;;;48.55;26.20;;;;;;;11.62;90.36;99331.72;1776911;79;21326;-76
2021/10/13 06:19:39;;;;;;;63.68;34.88;;;;;;;11.75;89.66;99321.30;1773083;79;21696;-77
2021/10/13 06:22:44;;;;;;;68.20;33.10;;;;;;;11.87;88.79;99321.58;1754936;79;21316;-76
2021/10/13 06:25:49;;;;;;;54.98;31.25;;;;;;;12.00;87.91;99312.84;1769358;79;21693;-75
2021/10/13 06:28:54;;;;;;;58.48;30.20;;;;;;;12.13;87.04;99304.30;1773367;80;21359;-76
2021/10/13 06:32:00;;;;;;;61.77;30.45;;;;;;;12.22;86.28;99301.66;1711589;82;21330;-76
2021/10/13 06:35:05;;;;;;;46.88;26.87;;;;;;;12.31;86.14;99293.53;1712594;83;21198;-76
2021/10/13 06:38:10;;;;;;;45.17;27.30;;;;;;;12.40;85.29;99289.52;1725988;81;21189;-76
2021/10/13 06:41:15;;;;;;;49.08;26.52;;;;;;;12.42;84.76;99276.45;1723925;82;21176;-76
2021/10/13 06:44:21;;;;;;;40.58;21.07;;;;;;;12.46;84.62;99288.66;1724100;82;21199;-76
2021/10/13 06:47:26;;;;;;;48.83;25.57;;;;;;;12.54;84.46;99292.55;1709854;82;21222;-75
2021/10/13 06:50:31;;;;;;;46.00;24.63;;;;;;;12.64;83.95;99307.73;1704535;83;22508;-75
2021/10/13 06:53:39;;;;;;;39.45;22.55;;;;;;;12.71;83.51;99299.81;1703195;83;21212;-76
2021/10/13 06:56:46;;;;;;;49.75;23.45;;;;;;;12.77;82.98;99298.11;1707588;83;21197;-75
2021/10/13 06:59:52;;;;;;;43.52;23.50;;;;;;;12.88;82.84;99304.82;1719883;81;21357;-76
2021/10/13 07:02:58;;;;;;;41.68;20.68;;;;;;;12.98;82.00;99308.79;1721758;82;21211;-76
2021/10/13 07:06:03;;;;;;;31.23;18.07;;;;;;;13.07;81.04;99312.67;1715145;82;21225;-76
2021/10/13 07:09:07;;;;;;;40.05;23.10;;;;;;;13.10;80.63;99299.90;1716188;82;21179;-75
2021/10/13 07:12:14;;;;;;;47.98;24.35;;;;;;;13.14;80.31;99305.27;1723058;82;21194;-76
2021/10/13 07:15:23;;;;;;;53.17;26.27;;;;;;;13.18;80.09;99298.29;1703945;82;21291;-77
2021/10/13 07:18:33;;;;;;;43.38;25.70;;;;;;;13.23;79.49;99299.88;1732510;82;21255;-75
2021/10/13 07:21:43;;;;;;;38.38;22.73;;;;;;;13.21;79.25;99304.70;1710644;82;21439;-76
2021/10/13 07:24:50;;;;;;;51.28;26.02;;;;;;;13.23;79.29;99294.39;1729498;82;21239;-75
2021/10/13 07:27:57;;;;;;;51.30;26.57;;;;;;;13.24;79.20;99288.67;1730561;82;21854;-75
2021/10/13 07:31:07;;;;;;;40.10;22.15;;;;;;;13.24;79.23;99279.06;1732129;82;21777;-76
2021/10/13 07:34:19;;;;;;;59.13;26.15;;;;;;;13.28;78.73;99275.36;1700522;82;21215;-76
2021/10/13 07:37:32;;;;;;;48.90;23.87;;;;;;;13.23;78.77;99265.56;1647219;82;21172;-75
2021/10/13 07:40:40;;;;;;;39.08;22.60;;;;;;;13.20;78.95;99276.94;1687495;82;21189;-76
2021/10/13 07:44:00;;;;;;;43.20;22.67;;;;;;;13.21;79.08;99281.36;1723804;81;21142;-75
2021/10/13 07:47:09;;;;;;;38.15;22.60;;;;;;;13.28;79.23;99278.09;1698658;81;21196;-77
2021/10/13 07:50:17;;;;;;;57.45;26.00;;;;;;;13.40;78.79;99288.69;1732344;80;21200;-75
2021/10/13 07:53:22;;;;;;;54.75;26.80;;;;;;;13.50;78.67;99287.70;1703854;82;21208;-76
2021/10/13 07:56:31;;;;;;;47.75;25.00;;;;;;;13.62;78.32;99278.22;1672043;82;22360;-76
2021/10/13 07:59:38;;;;;;;55.45;25.37;;;;;;;13.69;77.98;99281.78;1693224;80;21202;-76
2021/10/13 08:02:45;;;;;;;45.80;25.17;;;;;;;13.76;77.69;99272.94;1708495;83;21369;-76
2021/10/13 08:05:54;;;;;;;40.40;22.93;;;;;;;13.87;77.39;99263.13;1702351;82;21258;-76
2021/10/13 08:09:01;;;;;;;43.92;25.02;;;;;;;13.94;76.93;99252.94;1711355;83;21197;-75
2021/10/13 08:12:06;;;;;;;38.40;22.13;;;;;;;13.99;76.72;99248.14;1726963;80;21905;-75
2021/10/13 08:15:17;;;;;;;42.83;23.65;;;;;;;14.10;76.44;99247.40;1755980;79;21557;-75
2021/10/13 08:18:24;;;;;;;48.68;25.25;;;;;;;14.22;76.20;99242.02;1760066;80;21322;-77
2021/10/13 08:21:30;;;;;;;44.35;24.55;;;;;;;14.34;75.65;99233.31;1756785;79;21228;-79
2021/10/13 08:24:41;;;;;;;52.70;24.30;;;;;;;14.47;75.09;99240.06;1761584;79;21362;-76
2021/10/13 08:27:50;;;;;;;38.42;20.48;;;;;;;14.59;74.90;99242.95;1736595;79;21216;-77
2021/10/13 08:30:57;;;;;;;45.12;22.10;;;;;;;14.74;74.24;99251.66;1756923;79;21342;-75
2021/10/13 08:34:05;;;;;;;35.15;17.48;;;;;;;14.88;73.82;99238.59;1700786;79;21610;-75
2021/10/13 08:37:13;;;;;;;38.90;19.32;;;;;;;15.06;73.27;99238.58;1756593;79;21176;-76
2021/10/13 08:40:22;;;;;;;36.08;20.08;;;;;;;15.28;72.98;99232.55;1744374;79;22722;-76
2021/10/13 08:43:28;;;;;;;39.90;21.70;;;;;;;15.38;71.60;99232.83;1745659;79;21474;-74
2021/10/13 08:46:33;;;;;;;39.23;22.00;;;;;;;15.40;71.22;99221.05;1715478;81;21664;-77
2021/10/13 08:49:38;;;;;;;49.90;21.80;;;;;;;15.41;71.11;99215.84;1749737;79;21230;-76
2021/10/13 08:52:43;;;;;;;37.48;18.55;;;;;;;15.44;70.82;99200.23;1753536;79;21493;-76
2021/10/13 08:55:49;;;;;;;31.82;18.48;;;;;;;15.44;70.94;99208.50;1755889;79;21486;-76
2021/10/13 08:58:55;;;;;;;33.98;19.15;;;;;;;15.48;70.84;99206.09;1757634;79;21341;-76
2021/10/13 09:02:00;;;;;;;30.65;19.60;;;;;;;15.50;70.32;99203.41;1754683;79;21304;-74
2021/10/13 09:05:16;;;;;;;31.82;18.02;;;;;;;15.52;70.30;99201.25;1756887;79;21165;-76
2021/10/13 09:08:24;;;;;;;37.50;19.65;;;;;;;15.57;69.99;99197.28;1752345;79;21935;-76
2021/10/13 09:11:53;;;;;;;28.00;17.07;;;;;;;15.60;70.18;99206.43;1742385;79;21243;-76
2021/10/13 09:14:59;;;;;;;32.83;17.27;;;;;;;15.68;69.85;99212.73;1752273;79;21212;-77
2021/10/13 09:18:10;;;;;;;39.25;18.85;;;;;;;15.77;69.58;99203.04;1678540;82;21245;-75
2021/10/13 09:21:18;;;;;;;50.63;29.42;;;;;;;15.83;69.30;99214.48;1700395;82;21210;-82
2021/10/13 09:24:24;;;;;;;40.08;18.92;;;;;;;15.89;69.37;99214.91;1697553;82;21208;-75
2021/10/13 09:27:44;;;;;;;31.70;17.32;;;;;;;15.99;69.09;99202.75;1698139;82;21335;-76
2021/10/13 09:30:50;;;;;;;40.45;17.23;;;;;;;16.12;68.58;99210.50;1699829;82;21374;-75
2021/10/13 09:34:07;;;;;;;35.90;18.25;;;;;;;16.22;68.11;99213.50;1703520;82;21228;-75
2021/10/13 09:37:11;;;;;;;32.45;19.77;;;;;;;16.31;67.79;99209.30;1705310;82;22185;-75
2021/10/13 09:40:17;;;;;;;35.28;16.60;;;;;;;16.44;67.56;99212.37;1699090;82;21186;-75
2021/10/13 09:43:43;;;;;;;27.20;14.87;;;;;;;16.56;66.72;99193.34;1702733;82;21272;-76
2021/10/13 09:46:49;;;;;;;26.93;14.75;;;;;;;16.69;66.44;99190.00;1704688;82;21902;-76
2021/10/13 09:49:58;;;;;;;33.10;16.48;;;;;;;16.79;66.09;99182.80;1709024;83;21214;-75
2021/10/13 09:53:04;;;;;;;28.42;16.48;;;;;;;16.85;65.63;99182.39;1710887;82;21351;-76
2021/10/13 09:56:09;;;;;;;39.27;16.80;;;;;;;16.88;65.74;99184.64;1694688;82;21216;-74
2021/10/13 09:59:25;;;;;;;36.00;17.27;;;;;;;16.94;65.55;99167.11;1689961;82;21254;-75
2021/10/13 10:02:35;;;;;;;32.50;16.25;;;;;;;16.99;65.17;99155.33;1707989;82;21564;-75
2021/10/13 10:05:43;;;;;;;30.05;15.38;;;;;;;16.99;65.06;99153.40;1710662;82;21181;-76
2021/10/13 10:09:06;;;;;;;31.25;14.63;;;;;;;16.99;64.72;99144.27;1708421;82;21216;-76
2021/10/13 10:12:14;;;;;;;34.20;16.07;;;;;;;16.99;64.66;99145.66;1708921;82;21664;-76
2021/10/13 10:15:20;;;;;;;35.35;16.75;;;;;;;16.99;64.89;99109.75;1704282;82;21471;-76
2021/10/13 10:18:41;;;;;;;24.27;12.85;;;;;;;17.06;64.67;99108.49;1709229;82;21177;-76
2021/10/13 10:21:50;;;;;;;15.75;9.83;;;;;;;17.17;64.99;99097.62;1754243;79;21283;-76
2021/10/13 10:24:59;;;;;;;18.15;9.98;;;;;;;17.35;63.61;99102.37;1767074;79;21172;-77
2021/10/13 10:28:04;;;;;;;16.70;9.20;;;;;;;17.40;63.14;99131.20;1758007;79;21540;-76
2021/10/13 10:31:36;;;;;;;23.62;9.88;;;;;;;17.36;63.46;99128.09;1761195;79;21251;-76
2021/10/13 10:34:42;;;;;;;21.48;8.90;;;;;;;17.37;63.74;99122.33;1762449;79;22142;-77
2021/10/13 10:37:57;;;;;;;19.40;9.80;;;;;;;17.39;63.47;99128.98;1755801;79;21137;-75
2021/10/13 10:41:06;;;;;;;24.23;8.80;;;;;;;17.33;63.42;99120.31;1765433;79;21300;-76
2021/10/13 10:44:47;;;;;;;18.37;8.83;;;;;;;17.20;63.78;99124.22;1773443;79;21177;-76
2021/10/13 10:47:59;;;;;;;21.02;10.10;;;;;;;17.11;63.99;99129.30;1762624;79;21162;-76
2021/10/13 10:51:05;;;;;;;23.25;10.82;;;;;;;17.14;64.52;99131.30;1762349;79;21193;-76
2021/10/13 10:54:14;;;;;;;20.12;11.00;;;;;;;17.24;64.49;99141.98;1720673;81;21302;-75
2021/10/13 10:57:47;;;;;;;21.95;10.55;;;;;;;17.32;64.92;99132.47;1726332;81;21161;-76
2021/10/13 11:00:52;;;;;;;17.82;9.90;;;;;;;17.36;64.64;99140.53;1721487;81;21345;-76
2021/10/13 11:03:58;;;;;;;19.73;10.55;;;;;;;17.32;64.59;99131.92;1756671;79;21303;-75
2021/10/13 11:07:04;;;;;;;18.02;10.40;;;;;;;17.23;64.71;99132.57;1759950;79;21631;-76
2021/10/13 11:10:21;;;;;;;16.07;9.98;;;;;;;17.16;64.99;99146.52;1706108;82;21275;-76
2021/10/13 11:13:32;;;;;;;19.62;10.00;;;;;;;17.15;65.02;99157.28;1755506;79;21302;-75
2021/10/13 11:16:37;;;;;;;16.93;8.80;;;;;;;17.11;65.16;99148.64;1768170;79;21615;-75
2021/10/13 11:19:46;;;;;;;18.87;9.63;;;;;;;17.11;65.65;99150.02;1769294;79;21319;-76
2021/10/13 11:22:52;;;;;;;19.77;9.78;;;;;;;17.12;65.65;99143.95;1762233;79;21366;-75
2021/10/13 11:26:02;;;;;;;19.90;10.40;;;;;;;17.07;65.94;99132.27;1754438;79;21863;-75
2021/10/13 11:29:10;;;;;;;17.77;9.98;;;;;;;16.99;66.25;99127.16;1722932;79;21152;-75
2021/10/13 11:32:23;;;;;;;20.62;9.60;;;;;;;16.94;66.88;99150.54;1744888;79;21846;-75
2021/10/13 11:35:28;;;;;;;13.83;8.38;;;;;;;16.92;66.98;99145.78;1716805;82;21202;-76
2021/10/13 11:38:33;;;;;;;14.47;7.45;;;;;;;16.89;66.93;99135.25;1767044;79;21321;-75
2021/10/13 11:41:40;;;;;;;13.75;6.87;;;;;;;16.89;67.08;99124.72;1757706;79;21363;-75
2021/10/13 11:44:44;;;;;;;12.60;7.08;;;;;;;16.90;67.20;99123.11;1759339;81;21867;-75
2021/10/13 11:47:49;;;;;;;17.48;7.28;;;;;;;16.93;67.01;99123.98;1757786;81;21786;-75
2021/10/13 11:50:55;;;;;;;13.80;7.20;;;;;;;16.93;66.65;99119.00;1760890;81;21315;-75
2021/10/13 11:54:01;;;;;;;15.55;6.80;;;;;;;16.90;66.89;99126.42;1757996;81;22392;-75
2021/10/13 11:57:08;;;;;;;17.02;7.37;;;;;;;16.91;66.91;99149.64;1757437;81;21306;-75
2021/10/13 12:00:25;;;;;;;13.83;6.42;;;;;;;16.92;66.85;99143.57;1758443;79;21320;-76
2021/10/13 12:03:37;;;;;;;16.00;6.72;;;;;;;16.89;66.80;99128.86;1759701;81;21877;-74
2021/10/13 12:06:50;;;;;;;13.20;6.80;;;;;;;16.77;66.78;99147.70;1754654;81;21331;-75
2021/10/13 12:10:03;;;;;;;15.40;7.08;;;;;;;16.59;67.32;99156.12;1751761;81;21208;-75
2021/10/13 12:13:14;;;;;;;15.45;8.08;;;;;;;16.42;67.67;99170.36;1749787;81;21169;-75
2021/10/13 12:16:27;;;;;;;15.13;8.00;;;;;;;16.22;68.36;99175.72;1746990;80;21205;-75
2021/10/13 12:19:31;;;;;;;;;;;;;;;16.10;68.65;99172.97;1777547;79;21376;-75
2021/10/13 12:22:39;;;;;;;20.45;8.38;;;;;;;16.01;69.10;99174.95;1765686;80;20294;-75
2021/10/13 12:25:45;;;;;;;21.33;8.28;;;;;;;15.93;69.47;99178.89;1701946;83;21308;-75
2021/10/13 12:28:53;;;;;;;18.52;8.10;;;;;;;15.92;69.55;99175.84;1743977;82;21284;-76
2021/10/13 12:31:58;;;;;;;15.28;8.15;;;;;;;15.95;69.58;99178.13;1711476;83;21314;-75
2021/10/13 12:35:20;;;;;;;19.50;9.23;;;;;;;15.91;69.53;99186.58;1708955;82;21767;-76
2021/10/13 12:38:28;;;;;;;22.25;9.08;;;;;;;15.86;69.80;99186.45;1718525;83;21301;-76
2021/10/13 12:41:41;;;;;;;20.57;8.63;;;;;;;15.82;69.96;99185.25;1717208;83;21237;-77
2021/10/13 12:44:53;;;;;;;16.48;8.60;;;;;;;15.76;70.16;99182.91;1725806;82;21145;-76
2021/10/13 12:48:17;;;;;;;24.10;10.45;;;;;;;15.72;70.39;99175.34;1744530;82;21207;-76
2021/10/13 12:51:23;;;;;;;23.18;10.43;;;;;;;15.68;70.66;99183.78;1744830;82;21967;-75
2021/10/13 12:54:29;;;;;;;21.15;10.85;;;;;;;15.63;70.94;99187.76;1745964;82;21329;-76
2021/10/13 12:57:37;;;;;;;27.87;11.55;;;;;;;15.58;71.15;99201.70;1745498;82;21222;-76
2021/10/13 13:00:43;;;;;;;22.10;11.33;;;;;;;15.57;71.43;99202.79;1723606;82;21223;-76
2021/10/13 13:03:49;;;;;;;21.97;11.40;;;;;;;15.54;71.64;99208.77;1717372;83;21379;-76
2021/10/13 13:06:54;;;;;;;30.68;12.70;;;;;;;15.53;71.78;99215.89;1717658;83;22683;-76
2021/10/13 13:10:00;;;;;;;27.52;12.10;;;;;;;15.52;71.96;99223.84;1717939;83;21902;-76
2021/10/13 13:13:05;;;;;;;19.87;11.22;;;;;;;15.50;72.02;99221.87;1715617;83;21925;-76
2021/10/13 13:16:12;;;;;;;23.10;12.47;;;;;;;15.49;72.09;99229.30;1718110;83;21326;-76
2021/10/13 13:19:17;;;;;;;22.82;13.03;;;;;;;15.47;72.20;99236.94;1705568;83;21338;-76
2021/10/13 13:22:23;;;;;;;24.67;14.23;;;;;;;15.44;72.44;99245.70;1739947;82;21754;-76
2021/10/13 13:25:28;;;;;;;22.50;12.85;;;;;;;15.42;72.52;99241.48;1740588;82;22563;-76
2021/10/13 13:28:34;;;;;;;20.72;13.62;;;;;;;15.42;72.68;99233.21;1738486;82;21679;-76
2021/10/13 13:31:41;;;;;;;30.40;14.23;;;;;;;15.41;72.80;99237.88;1744826;81;21635;-75
2021/10/13 13:34:46;;;;;;;34.33;13.32;;;;;;;15.37;72.91;99238.05;1739677;82;21208;-75
2021/10/13 13:37:51;;;;;;;31.65;13.03;;;;;;;15.35;73.10;99237.45;1737767;82;21589;-76
2021/10/13 13:40:56;;;;;;;26.95;13.25;;;;;;;15.33;73.23;99234.91;1740153;82;21211;-75
2021/10/13 13:44:02;;;;;;;23.55;13.20;;;;;;;15.32;73.47;99227.72;1740835;82;21798;-75
2021/10/13 13:47:08;;;;;;;32.75;14.38;;;;;;;15.33;73.75;99228.56;1740299;82;21315;-76
2021/10/13 13:50:14;;;;;;;24.55;15.03;;;;;;;15.33;73.96;99225.80;1740384;82;21348;-76
2021/10/13 13:53:21;;;;;;;32.83;15.70;;;;;;;15.33;74.03;99218.92;1739468;82;21345;-76
2021/10/13 13:56:26;;;;;;;26.33;14.35;;;;;;;15.31;74.61;99212.81;1740902;82;21814;-76
2021/10/13 13:59:32;;;;;;;31.95;16.17;;;;;;;15.28;75.26;99221.53;1745325;81;21291;-76
2021/10/13 14:02:38;;;;;;;22.15;14.40;;;;;;;15.21;76.04;99224.39;1769851;81;21291;-76
2021/10/13 14:05:44;;;;;;;28.00;15.43;;;;;;;15.16;76.75;99213.78;1771058;81;21229;-76
2021/10/13 14:08:50;;;;;;;27.15;15.50;;;;;;;15.06;77.27;99208.28;1771332;81;21304;-76
2021/10/13 14:11:57;;;;;;;23.07;15.48;;;;;;;15.01;77.58;99225.20;1769498;81;21976;-76
2021/10/13 14:15:03;;;;;;;33.60;16.93;;;;;;;14.96;78.17;99221.77;1771675;81;21300;-76
2021/10/13 14:18:08;;;;;;;28.30;16.50;;;;;;;14.91;78.73;99224.88;1771222;81;21185;-75
2021/10/13 14:21:14;;;;;;;23.57;15.03;;;;;;;14.86;79.18;99226.95;1783740;80;21893;-75
2021/10/13 14:24:19;;;;;;;26.10;15.20;;;;;;;14.80;79.87;99216.87;1784876;80;21296;-75
2021/10/13 14:27:24;;;;;;;23.47;12.55;;;;;;;14.73;80.22;99218.88;1784995;80;21312;-75
2021/10/13 14:30:31;;;;;;;26.52;14.07;;;;;;;14.69;80.80;99223.16;1784813;80;21319;-74
2021/10/13 14:33:41;;;;;;;34.78;15.72;;;;;;;14.65;81.17;99220.55;1783359;80;21347;-75